sensor_id;sensor_type;location;lat;lon;timestamp;pressure;altitude;pressure_sealevel;temperature;humidity
63321;BME280;49449;48.800;9.534;2023-04-06T00:01:48;98833.31;;;4.13;32.40
63321;BME280;49449;48.800;9.534;2023-04-06T00:04:16;98836.47;;;4.08;32.63
63321;BME280;49449;48.800;9.534;2023-04-06T00:06:44;98826.19;;;4.07;32.41
63321;BME280;49449;48.800;9.534;2023-04-06T00:09:13;98828.13;;;4.05;32.15
63321;BME280;49449;48.800;9.534;2023-04-06T00:11:41;98822.09;;;4.04;32.15
63321;BME280;49449;48.800;9.534;2023-04-06T00:14:09;98826.69;;;4.02;32.14
63321;BME280;49449;48.800;9.534;2023-04-06T00:16:37;98819.75;;;3.94;32.00
63321;BME280;49449;48.800;9.534;2023-04-06T00:19:05;98829.09;;;3.89;32.40
63321;BME280;49449;48.800;9.534;2023-04-06T00:21:33;98819.38;;;3.82;32.39
63321;BME280;49449;48.800;9.534;2023-04-06T00:24:00;98813.78;;;3.86;32.49
63321;BME280;49449;48.800;9.534;2023-04-06T00:26:31;98817.09;;;3.79;32.68
63321;BME280;49449;48.800;9.534;2023-04-06T00:28:59;98821.34;;;3.80;32.92
63321;BME280;49449;48.800;9.534;2023-04-06T00:31:27;98821.97;;;3.82;32.61
63321;BME280;49449;48.800;9.534;2023-04-06T00:33:55;98816.56;;;3.84;32.62
63321;BME280;49449;48.800;9.534;2023-04-06T00:36:23;98813.84;;;3.77;32.60
63321;BME280;49449;48.800;9.534;2023-04-06T00:38:51;98813.69;;;3.79;32.70
63321;BME280;49449;48.800;9.534;2023-04-06T00:41:19;98814.47;;;3.79;32.71
63321;BME280;49449;48.800;9.534;2023-04-06T00:43:49;98815.50;;;3.78;32.52
63321;BME280;49449;48.800;9.534;2023-04-06T00:46:17;98816.63;;;3.76;32.79
63321;BME280;49449;48.800;9.534;2023-04-06T00:48:45;98813.72;;;3.71;32.90
63321;BME280;49449;48.800;9.534;2023-04-06T00:51:13;98808.03;;;3.67;33.14
63321;BME280;49449;48.800;9.534;2023-04-06T00:53:41;98807.59;;;3.63;33.20
63321;BME280;49449;48.800;9.534;2023-04-06T00:56:09;98807.75;;;3.62;33.04
63321;BME280;49449;48.800;9.534;2023-04-06T00:58:37;98803.16;;;3.64;32.70
63321;BME280;49449;48.800;9.534;2023-04-06T01:01:06;98805.97;;;3.62;33.30
63321;BME280;49449;48.800;9.534;2023-04-06T01:03:34;98802.53;;;3.62;32.92
63321;BME280;49449;48.800;9.534;2023-04-06T01:06:02;98809.41;;;3.63;32.88
63321;BME280;49449;48.800;9.534;2023-04-06T01:08:30;98804.34;;;3.61;32.96
63321;BME280;49449;48.800;9.534;2023-04-06T01:10:59;98805.31;;;3.60;32.86
63321;BME280;49449;48.800;9.534;2023-04-06T01:13:28;98801.44;;;3.56;33.11
63321;BME280;49449;48.800;9.534;2023-04-06T01:15:56;98803.13;;;3.49;33.08
63321;BME280;49449;48.800;9.534;2023-04-06T01:18:27;98798.25;;;3.46;33.07
63321;BME280;49449;48.800;9.534;2023-04-06T01:20:55;98801.03;;;3.44;33.55
63321;BME280;49449;48.800;9.534;2023-04-06T01:23:24;98803.13;;;3.49;33.28
63321;BME280;49449;48.800;9.534;2023-04-06T01:25:52;98795.28;;;3.49;33.04
63321;BME280;49449;48.800;9.534;2023-04-06T01:28:20;98792.84;;;3.48;33.37
63321;BME280;49449;48.800;9.534;2023-04-06T01:30:48;98788.97;;;3.43;33.48
63321;BME280;49449;48.800;9.534;2023-04-06T01:33:16;98792.72;;;3.41;33.60
63321;BME280;49449;48.800;9.534;2023-04-06T01:35:43;98791.75;;;3.42;33.44
63321;BME280;49449;48.800;9.534;2023-04-06T01:38:11;98778.06;;;3.40;33.63
63321;BME280;49449;48.800;9.534;2023-04-06T01:40:41;98780.22;;;3.36;33.40
63321;BME280;49449;48.800;9.534;2023-04-06T01:43:08;98779.38;;;3.36;33.57
63321;BME280;49449;48.800;9.534;2023-04-06T01:45:36;98780.06;;;3.30;34.00
63321;BME280;49449;48.800;9.534;2023-04-06T01:48:04;98777.97;;;3.25;33.62
63321;BME280;49449;48.800;9.534;2023-04-06T01:50:32;98784.00;;;3.25;33.89
63321;BME280;49449;48.800;9.534;2023-04-06T01:53:00;98773.41;;;3.27;33.47
63321;BME280;49449;48.800;9.534;2023-04-06T01:55:28;98779.59;;;3.26;33.51
63321;BME280;49449;48.800;9.534;2023-04-06T01:57:57;98777.31;;;3.23;33.97
63321;BME280;49449;48.800;9.534;2023-04-06T02:00:25;98767.88;;;3.22;33.42
63321;BME280;49449;48.800;9.534;2023-04-06T02:02:53;98770.50;;;3.22;33.26
63321;BME280;49449;48.800;9.534;2023-04-06T02:05:21;98772.44;;;3.20;33.33
63321;BME280;49449;48.800;9.534;2023-04-06T02:07:49;98772.19;;;3.15;33.58
63321;BME280;49449;48.800;9.534;2023-04-06T02:10:18;98774.31;;;3.11;33.63
63321;BME280;49449;48.800;9.534;2023-04-06T02:12:45;98769.28;;;3.10;33.83
63321;BME280;49449;48.800;9.534;2023-04-06T02:15:15;98767.28;;;3.12;33.59
63321;BME280;49449;48.800;9.534;2023-04-06T02:17:43;98772.69;;;3.10;33.96
63321;BME280;49449;48.800;9.534;2023-04-06T02:20:11;98775.00;;;3.05;34.03
63321;BME280;49449;48.800;9.534;2023-04-06T02:22:39;98768.34;;;3.02;33.88
63321;BME280;49449;48.800;9.534;2023-04-06T02:25:08;98768.84;;;2.98;33.71
63321;BME280;49449;48.800;9.534;2023-04-06T02:27:36;98774.56;;;2.93;33.69
63321;BME280;49449;48.800;9.534;2023-04-06T02:30:05;98769.25;;;2.86;33.83
63321;BME280;49449;48.800;9.534;2023-04-06T02:32:34;98759.28;;;2.90;34.03
63321;BME280;49449;48.800;9.534;2023-04-06T02:35:02;98762.69;;;2.91;33.89
63321;BME280;49449;48.800;9.534;2023-04-06T02:37:30;98755.03;;;2.89;34.09
63321;BME280;49449;48.800;9.534;2023-04-06T02:39:58;98760.25;;;2.89;34.38
63321;BME280;49449;48.800;9.534;2023-04-06T02:42:26;98761.41;;;2.86;33.48
63321;BME280;49449;48.800;9.534;2023-04-06T02:44:54;98759.28;;;2.90;34.11
63321;BME280;49449;48.800;9.534;2023-04-06T02:47:21;98762.03;;;2.89;34.34
63321;BME280;49449;48.800;9.534;2023-04-06T02:49:51;98759.94;;;2.84;33.83
63321;BME280;49449;48.800;9.534;2023-04-06T02:52:19;98756.53;;;2.83;34.01
63321;BME280;49449;48.800;9.534;2023-04-06T02:54:46;98757.16;;;2.85;33.48
63321;BME280;49449;48.800;9.534;2023-04-06T02:57:14;98754.88;;;2.82;34.02
63321;BME280;49449;48.800;9.534;2023-04-06T02:59:42;98753.78;;;2.77;34.16
63321;BME280;49449;48.800;9.534;2023-04-06T03:02:10;98761.31;;;2.72;34.55
63321;BME280;49449;48.800;9.534;2023-04-06T03:04:38;98750.25;;;2.70;33.51
63321;BME280;49449;48.800;9.534;2023-04-06T03:07:07;98749.91;;;2.73;34.00
63321;BME280;49449;48.800;9.534;2023-04-06T03:09:36;98753.47;;;2.72;33.56
63321;BME280;49449;48.800;9.534;2023-04-06T03:12:04;98757.09;;;2.71;33.66
63321;BME280;49449;48.800;9.534;2023-04-06T03:14:34;98750.44;;;2.60;33.90
63321;BME280;49449;48.800;9.534;2023-04-06T03:17:02;98754.41;;;2.47;33.90
63321;BME280;49449;48.800;9.534;2023-04-06T03:19:30;98751.31;;;2.44;33.87
63321;BME280;49449;48.800;9.534;2023-04-06T03:21:58;98748.44;;;2.30;34.13
63321;BME280;49449;48.800;9.534;2023-04-06T03:24:27;98746.66;;;2.31;34.21
63321;BME280;49449;48.800;9.534;2023-04-06T03:26:55;98756.22;;;2.39;34.38
63321;BME280;49449;48.800;9.534;2023-04-06T03:29:23;98757.72;;;2.33;33.93
63321;BME280;49449;48.800;9.534;2023-04-06T03:31:52;98753.19;;;2.27;33.81
63321;BME280;49449;48.800;9.534;2023-04-06T03:34:19;98766.84;;;2.37;33.88
63321;BME280;49449;48.800;9.534;2023-04-06T03:36:47;98759.84;;;2.38;34.02
63321;BME280;49449;48.800;9.534;2023-04-06T03:39:22;98759.84;;;2.38;33.88
63321;BME280;49449;48.800;9.534;2023-04-06T03:41:51;98765.22;;;2.28;33.84
63321;BME280;49449;48.800;9.534;2023-04-06T03:44:19;98760.69;;;2.30;33.75
63321;BME280;49449;48.800;9.534;2023-04-06T03:46:47;98764.56;;;2.34;33.36
63321;BME280;49449;48.800;9.534;2023-04-06T03:49:14;98765.38;;;2.35;34.32
63321;BME280;49449;48.800;9.534;2023-04-06T03:51:42;98760.31;;;2.33;34.50
63321;BME280;49449;48.800;9.534;2023-04-06T03:54:10;98769.31;;;2.30;34.08
63321;BME280;49449;48.800;9.534;2023-04-06T03:56:38;98771.75;;;2.32;33.73
63321;BME280;49449;48.800;9.534;2023-04-06T03:59:07;98772.72;;;2.31;34.29
63321;BME280;49449;48.800;9.534;2023-04-06T04:01:35;98773.22;;;2.26;33.78
63321;BME280;49449;48.800;9.534;2023-04-06T04:04:03;98770.97;;;2.23;34.06
63321;BME280;49449;48.800;9.534;2023-04-06T04:06:31;98777.16;;;2.22;34.57
63321;BME280;49449;48.800;9.534;2023-04-06T04:08:59;98780.41;;;2.24;34.51
63321;BME280;49449;48.800;9.534;2023-04-06T04:11:27;98774.84;;;2.27;34.85
63321;BME280;49449;48.800;9.534;2023-04-06T04:13:55;98785.59;;;2.24;34.61
63321;BME280;49449;48.800;9.534;2023-04-06T04:16:24;98777.16;;;2.22;35.24
63321;BME280;49449;48.800;9.534;2023-04-06T04:18:52;98781.56;;;2.22;34.06
63321;BME280;49449;48.800;9.534;2023-04-06T04:21:20;98786.44;;;2.25;34.46
63321;BME280;49449;48.800;9.534;2023-04-06T04:23:47;98784.31;;;2.20;35.16
63321;BME280;49449;48.800;9.534;2023-04-06T04:26:16;98786.47;;;2.17;34.81
63321;BME280;49449;48.800;9.534;2023-04-06T04:28:44;98790.50;;;2.19;34.15
63321;BME280;49449;48.800;9.534;2023-04-06T04:31:12;98787.09;;;2.19;34.64
63321;BME280;49449;48.800;9.534;2023-04-06T04:33:41;98786.28;;;2.18;35.37
63321;BME280;49449;48.800;9.534;2023-04-06T04:36:09;98789.88;;;2.17;34.89
63321;BME280;49449;48.800;9.534;2023-04-06T04:38:36;98787.78;;;2.13;35.39
63321;BME280;49449;48.800;9.534;2023-04-06T04:41:04;98788.59;;;2.13;34.98
63321;BME280;49449;48.800;9.534;2023-04-06T04:43:32;98790.22;;;2.14;34.54
63321;BME280;49449;48.800;9.534;2023-04-06T04:46:00;98791.34;;;2.11;34.59
63321;BME280;49449;48.800;9.534;2023-04-06T04:48:28;98788.59;;;2.13;35.03
63321;BME280;49449;48.800;9.534;2023-04-06T04:50:57;98790.88;;;2.16;34.51
63321;BME280;49449;48.800;9.534;2023-04-06T04:53:25;98796.06;;;2.16;35.52
63321;BME280;49449;48.800;9.534;2023-04-06T04:55:53;98796.88;;;2.17;34.68
63321;BME280;49449;48.800;9.534;2023-04-06T04:58:21;98798.31;;;2.19;34.98
63321;BME280;49449;48.800;9.534;2023-04-06T05:00:48;98800.28;;;2.17;35.16
63321;BME280;49449;48.800;9.534;2023-04-06T05:03:19;98801.28;;;2.16;34.33
63321;BME280;49449;48.800;9.534;2023-04-06T05:05:48;98805.34;;;2.19;34.96
63321;BME280;49449;48.800;9.534;2023-04-06T05:08:17;98801.13;;;2.18;34.67
63321;BME280;49449;48.800;9.534;2023-04-06T05:10:46;98804.38;;;2.20;34.19
63321;BME280;49449;48.800;9.534;2023-04-06T05:13:14;98808.44;;;2.22;34.80
63321;BME280;49449;48.800;9.534;2023-04-06T05:15:42;98817.25;;;2.21;34.16
63321;BME280;49449;48.800;9.534;2023-04-06T05:18:10;98819.66;;;2.23;34.06
63321;BME280;49449;48.800;9.534;2023-04-06T05:20:38;98818.22;;;2.20;34.96
63321;BME280;49449;48.800;9.534;2023-04-06T05:23:06;98819.53;;;2.16;34.73
63321;BME280;49449;48.800;9.534;2023-04-06T05:25:36;98821.31;;;2.16;34.33
63321;BME280;49449;48.800;9.534;2023-04-06T05:28:03;98816.41;;;2.21;34.57
63321;BME280;49449;48.800;9.534;2023-04-06T05:30:31;98817.72;;;2.25;36.48
63321;BME280;49449;48.800;9.534;2023-04-06T05:32:59;98824.56;;;2.34;39.96
63321;BME280;49449;48.800;9.534;2023-04-06T05:35:27;98825.66;;;2.40;42.19
63321;BME280;49449;48.800;9.534;2023-04-06T05:37:55;98832.84;;;2.46;43.26
63321;BME280;49449;48.800;9.534;2023-04-06T05:40:23;98830.19;;;2.54;38.01
63321;BME280;49449;48.800;9.534;2023-04-06T05:42:52;98828.88;;;2.58;36.34
63321;BME280;49449;48.800;9.534;2023-04-06T05:45:20;98829.47;;;2.68;36.16
63321;BME280;49449;48.800;9.534;2023-04-06T05:47:48;98827.81;;;2.76;35.73
63321;BME280;49449;48.800;9.534;2023-04-06T05:50:16;98838.88;;;2.86;34.62
63321;BME280;49449;48.800;9.534;2023-04-06T05:52:44;98837.69;;;2.97;34.80
63321;BME280;49449;48.800;9.534;2023-04-06T05:55:12;98843.16;;;3.10;34.42
63321;BME280;49449;48.800;9.534;2023-04-06T05:57:40;98834.47;;;3.18;33.88
63321;BME280;49449;48.800;9.534;2023-04-06T06:00:11;98844.22;;;3.32;33.90
63321;BME280;49449;48.800;9.534;2023-04-06T06:02:39;98848.50;;;3.48;33.71
63321;BME280;49449;48.800;9.534;2023-04-06T06:05:08;98844.03;;;3.57;33.24
63321;BME280;49449;48.800;9.534;2023-04-06T06:07:36;98847.88;;;3.69;33.93
63321;BME280;49449;48.800;9.534;2023-04-06T06:10:05;98850.28;;;3.79;33.47
63321;BME280;49449;48.800;9.534;2023-04-06T06:12:33;98840.22;;;3.91;34.02
63321;BME280;49449;48.800;9.534;2023-04-06T06:15:01;98836.81;;;4.05;33.23
63321;BME280;49449;48.800;9.534;2023-04-06T06:17:31;98849.00;;;4.13;32.73
63321;BME280;49449;48.800;9.534;2023-04-06T06:19:59;98853.59;;;4.26;32.79
63321;BME280;49449;48.800;9.534;2023-04-06T06:22:27;98849.22;;;4.41;32.28
63321;BME280;49449;48.800;9.534;2023-04-06T06:24:55;98844.00;;;4.56;32.27
63321;BME280;49449;48.800;9.534;2023-04-06T06:27:23;98852.91;;;4.62;32.27
63321;BME280;49449;48.800;9.534;2023-04-06T06:29:51;98845.22;;;4.75;31.97
63321;BME280;49449;48.800;9.534;2023-04-06T06:32:19;98853.97;;;4.82;31.96
63321;BME280;49449;48.800;9.534;2023-04-06T06:34:48;98850.31;;;4.91;32.16
63321;BME280;49449;48.800;9.534;2023-04-06T06:37:16;98858.31;;;5.05;31.89
63321;BME280;49449;48.800;9.534;2023-04-06T06:39:44;98843.94;;;5.16;31.88
63321;BME280;49449;48.800;9.534;2023-04-06T06:42:12;98849.16;;;5.30;31.93
63321;BME280;49449;48.800;9.534;2023-04-06T06:44:40;98850.81;;;5.38;32.19
63321;BME280;49449;48.800;9.534;2023-04-06T06:47:08;98848.53;;;5.50;32.24
63321;BME280;49449;48.800;9.534;2023-04-06T06:49:36;98852.75;;;5.51;32.00
63321;BME280;49449;48.800;9.534;2023-04-06T06:52:05;98855.34;;;5.66;31.62
63321;BME280;49449;48.800;9.534;2023-04-06T06:54:33;98849.22;;;5.80;31.12
63321;BME280;49449;48.800;9.534;2023-04-06T06:57:01;98837.63;;;5.96;30.86
63321;BME280;49449;48.800;9.534;2023-04-06T06:59:29;98844.00;;;6.08;31.16
63321;BME280;49449;48.800;9.534;2023-04-06T07:01:57;98834.59;;;6.21;30.44
63321;BME280;49449;48.800;9.534;2023-04-06T07:04:24;98842.59;;;6.34;30.05
63321;BME280;49449;48.800;9.534;2023-04-06T07:06:54;98829.16;;;6.51;29.70
63321;BME280;49449;48.800;9.534;2023-04-06T07:09:24;98838.53;;;6.67;29.90
63321;BME280;49449;48.800;9.534;2023-04-06T07:11:53;98840.59;;;6.78;29.34
63321;BME280;49449;48.800;9.534;2023-04-06T07:14:23;98840.84;;;6.90;29.25
63321;BME280;49449;48.800;9.534;2023-04-06T07:16:50;98838.28;;;7.03;29.46
63321;BME280;49449;48.800;9.534;2023-04-06T07:19:18;98845.81;;;7.19;29.35
63321;BME280;49449;48.800;9.534;2023-04-06T07:21:46;98842.59;;;7.31;29.63
63321;BME280;49449;48.800;9.534;2023-04-06T07:24:15;98847.69;;;7.46;29.44
63321;BME280;49449;48.800;9.534;2023-04-06T07:26:45;98838.41;;;7.56;29.44
63321;BME280;49449;48.800;9.534;2023-04-06T07:29:13;98843.94;;;7.68;29.56
63321;BME280;49449;48.800;9.534;2023-04-06T07:31:40;98849.56;;;7.78;29.40
63321;BME280;49449;48.800;9.534;2023-04-06T07:34:09;98839.47;;;7.95;28.92
63321;BME280;49449;48.800;9.534;2023-04-06T07:36:37;98845.53;;;8.09;28.76
63321;BME280;49449;48.800;9.534;2023-04-06T07:39:04;98837.22;;;8.19;28.62
63321;BME280;49449;48.800;9.534;2023-04-06T07:41:33;98837.00;;;8.34;28.52
63321;BME280;49449;48.800;9.534;2023-04-06T07:44:03;98836.78;;;8.42;28.24
63321;BME280;49449;48.800;9.534;2023-04-06T07:46:31;98836.16;;;8.53;28.25
63321;BME280;49449;48.800;9.534;2023-04-06T07:49:00;98826.81;;;8.64;28.03
63321;BME280;49449;48.800;9.534;2023-04-06T07:51:28;98827.22;;;8.75;28.24
63321;BME280;49449;48.800;9.534;2023-04-06T07:53:57;98825.75;;;8.85;27.71
63321;BME280;49449;48.800;9.534;2023-04-06T07:56:25;98832.97;;;8.97;27.52
63321;BME280;49449;48.800;9.534;2023-04-06T07:58:53;98823.59;;;9.07;27.77
63321;BME280;49449;48.800;9.534;2023-04-06T08:01:24;98822.69;;;9.27;27.49
63321;BME280;49449;48.800;9.534;2023-04-06T08:03:52;98822.81;;;9.39;26.48
63321;BME280;49449;48.800;9.534;2023-04-06T08:06:22;98825.41;;;9.52;25.76
63321;BME280;49449;48.800;9.534;2023-04-06T08:08:49;98825.72;;;9.62;26.03
63321;BME280;49449;48.800;9.534;2023-04-06T08:11:17;98831.94;;;9.75;25.40
63321;BME280;49449;48.800;9.534;2023-04-06T08:13:45;98824.16;;;9.80;24.73
63321;BME280;49449;48.800;9.534;2023-04-06T08:16:13;98821.50;;;9.80;24.41
63321;BME280;49449;48.800;9.534;2023-04-06T08:18:42;98826.16;;;9.91;24.42
63321;BME280;49449;48.800;9.534;2023-04-06T08:21:10;98826.09;;;9.98;24.57
63321;BME280;49449;48.800;9.534;2023-04-06T08:23:38;98827.59;;;10.12;24.82
63321;BME280;49449;48.800;9.534;2023-04-06T08:26:06;98818.34;;;10.21;25.29
63321;BME280;49449;48.800;9.534;2023-04-06T08:28:34;98817.19;;;10.36;24.57
63321;BME280;49449;48.800;9.534;2023-04-06T08:31:04;98822.84;;;10.58;24.11
63321;BME280;49449;48.800;9.534;2023-04-06T08:33:33;98818.25;;;10.72;24.00
63321;BME280;49449;48.800;9.534;2023-04-06T08:36:11;98817.47;;;10.83;23.67
63321;BME280;49449;48.800;9.534;2023-04-06T08:38:40;98812.66;;;10.98;24.07
63321;BME280;49449;48.800;9.534;2023-04-06T08:41:09;98817.53;;;11.13;22.75
63321;BME280;49449;48.800;9.534;2023-04-06T08:43:42;98820.09;;;11.20;23.67
63321;BME280;49449;48.800;9.534;2023-04-06T08:46:10;98821.94;;;11.31;24.13
63321;BME280;49449;48.800;9.534;2023-04-06T08:48:40;98818.31;;;11.44;24.77
63321;BME280;49449;48.800;9.534;2023-04-06T08:51:10;98814.44;;;11.59;26.45
63321;BME280;49449;48.800;9.534;2023-04-06T08:53:38;98815.72;;;11.68;24.65
63321;BME280;49449;48.800;9.534;2023-04-06T08:56:07;98813.00;;;11.86;24.61
63321;BME280;49449;48.800;9.534;2023-04-06T08:58:38;98810.38;;;11.98;23.51
63321;BME280;49449;48.800;9.534;2023-04-06T09:01:08;98807.03;;;12.03;23.37
63321;BME280;49449;48.800;9.534;2023-04-06T09:03:37;98806.56;;;12.18;25.58
63321;BME280;49449;48.800;9.534;2023-04-06T09:06:07;98803.91;;;12.29;25.53
63321;BME280;49449;48.800;9.534;2023-04-06T09:08:38;98795.00;;;12.47;25.58
63321;BME280;49449;48.800;9.534;2023-04-06T09:11:07;98800.41;;;12.64;24.54
63321;BME280;49449;48.800;9.534;2023-04-06T09:13:45;98792.78;;;12.68;24.02
63321;BME280;49449;48.800;9.534;2023-04-06T09:16:13;98786.53;;;12.86;22.75
63321;BME280;49449;48.800;9.534;2023-04-06T09:18:42;98791.78;;;12.98;21.98
63321;BME280;49449;48.800;9.534;2023-04-06T09:21:10;98785.47;;;13.16;22.31
63321;BME280;49449;48.800;9.534;2023-04-06T09:23:40;98787.91;;;13.34;22.01
63321;BME280;49449;48.800;9.534;2023-04-06T09:26:10;98791.06;;;13.48;21.26
63321;BME280;49449;48.800;9.534;2023-04-06T09:28:45;98787.63;;;13.64;22.03
63321;BME280;49449;48.800;9.534;2023-04-06T09:31:14;98787.16;;;13.68;20.87
63321;BME280;49449;48.800;9.534;2023-04-06T09:33:44;98785.28;;;13.85;20.65
63321;BME280;49449;48.800;9.534;2023-04-06T09:36:13;98788.91;;;13.96;20.68
63321;BME280;49449;48.800;9.534;2023-04-06T09:38:54;98786.06;;;14.02;22.15
63321;BME280;49449;48.800;9.534;2023-04-06T09:41:24;98778.00;;;14.14;21.06
63321;BME280;49449;48.800;9.534;2023-04-06T09:43:52;98772.31;;;14.28;21.93
63321;BME280;49449;48.800;9.534;2023-04-06T09:46:21;98776.38;;;14.30;21.29
63321;BME280;49449;48.800;9.534;2023-04-06T09:48:51;98770.53;;;14.33;23.54
63321;BME280;49449;48.800;9.534;2023-04-06T09:51:20;98764.13;;;14.29;20.94
63321;BME280;49449;48.800;9.534;2023-04-06T09:53:53;98760.66;;;14.29;21.79
63321;BME280;49449;48.800;9.534;2023-04-06T09:56:24;98758.13;;;14.39;19.95
63321;BME280;49449;48.800;9.534;2023-04-06T09:59:01;98750.03;;;14.51;19.39
63321;BME280;49449;48.800;9.534;2023-04-06T10:01:32;98753.47;;;14.46;18.11
63321;BME280;49449;48.800;9.534;2023-04-06T10:04:19;98746.47;;;14.62;18.36
63321;BME280;49449;48.800;9.534;2023-04-06T10:06:52;98747.44;;;14.78;19.81
63321;BME280;49449;48.800;9.534;2023-04-06T10:09:25;98748.28;;;14.84;19.51
63321;BME280;49449;48.800;9.534;2023-04-06T10:11:55;98746.53;;;14.94;18.45
63321;BME280;49449;48.800;9.534;2023-04-06T10:14:25;98742.00;;;14.95;18.09
63321;BME280;49449;48.800;9.534;2023-04-06T10:16:54;98736.69;;;14.95;16.07
63321;BME280;49449;48.800;9.534;2023-04-06T10:19:24;98737.00;;;14.71;16.16
63321;BME280;49449;48.800;9.534;2023-04-06T10:21:56;98730.59;;;14.72;16.81
63321;BME280;49449;48.800;9.534;2023-04-06T10:24:27;98732.97;;;14.69;16.86
63321;BME280;49449;48.800;9.534;2023-04-06T10:26:58;98733.91;;;14.80;16.79
63321;BME280;49449;48.800;9.534;2023-04-06T10:29:26;98731.66;;;14.71;16.46
63321;BME280;49449;48.800;9.534;2023-04-06T10:31:54;98735.22;;;14.55;16.88
63321;BME280;49449;48.800;9.534;2023-04-06T10:34:22;98738.50;;;14.62;17.11
63321;BME280;49449;48.800;9.534;2023-04-06T10:36:50;98735.00;;;14.62;16.06
63321;BME280;49449;48.800;9.534;2023-04-06T10:39:24;98734.69;;;14.80;18.16
63321;BME280;49449;48.800;9.534;2023-04-06T10:41:53;98739.88;;;14.97;16.75
63321;BME280;49449;48.800;9.534;2023-04-06T10:44:22;98734.78;;;14.90;15.12
63321;BME280;49449;48.800;9.534;2023-04-06T10:46:55;98730.38;;;15.01;15.93
63321;BME280;49449;48.800;9.534;2023-04-06T10:49:24;98727.75;;;15.06;16.61
63321;BME280;49449;48.800;9.534;2023-04-06T10:51:53;98733.47;;;15.20;17.28
63321;BME280;49449;48.800;9.534;2023-04-06T10:54:24;98727.41;;;14.98;17.55
63321;BME280;49449;48.800;9.534;2023-04-06T10:56:53;98723.81;;;15.14;18.44
63321;BME280;49449;48.800;9.534;2023-04-06T10:59:22;98719.72;;;15.28;18.60
63321;BME280;49449;48.800;9.534;2023-04-06T11:01:51;98728.25;;;15.30;18.78
63321;BME280;49449;48.800;9.534;2023-04-06T11:04:20;98721.47;;;15.45;20.06
63321;BME280;49449;48.800;9.534;2023-04-06T11:06:48;98719.50;;;15.35;17.99
63321;BME280;49449;48.800;9.534;2023-04-06T11:09:23;98721.22;;;15.19;18.57
63321;BME280;49449;48.800;9.534;2023-04-06T11:11:54;98726.03;;;15.22;19.45
63321;BME280;49449;48.800;9.534;2023-04-06T11:14:22;98713.63;;;15.33;17.32
63321;BME280;49449;48.800;9.534;2023-04-06T11:16:50;98711.84;;;15.44;21.23
63321;BME280;49449;48.800;9.534;2023-04-06T11:19:18;98708.44;;;15.53;15.91
63321;BME280;49449;48.800;9.534;2023-04-06T11:21:48;98701.63;;;15.68;16.17
63321;BME280;49449;48.800;9.534;2023-04-06T11:24:18;98700.63;;;15.79;18.17
63321;BME280;49449;48.800;9.534;2023-04-06T11:26:48;98703.19;;;15.64;18.73
63321;BME280;49449;48.800;9.534;2023-04-06T11:29:19;98695.19;;;15.64;19.09
63321;BME280;49449;48.800;9.534;2023-04-06T11:31:49;98677.38;;;15.69;17.30
63321;BME280;49449;48.800;9.534;2023-04-06T11:34:18;98690.94;;;15.63;15.99
63321;BME280;49449;48.800;9.534;2023-04-06T11:36:47;98686.38;;;15.58;15.59
63321;BME280;49449;48.800;9.534;2023-04-06T11:39:19;98683.47;;;15.60;16.49
63321;BME280;49449;48.800;9.534;2023-04-06T11:41:47;98683.50;;;15.65;17.40
63321;BME280;49449;48.800;9.534;2023-04-06T11:44:27;98677.97;;;15.82;17.20
63321;BME280;49449;48.800;9.534;2023-04-06T11:46:56;98671.59;;;15.83;16.40
63321;BME280;49449;48.800;9.534;2023-04-06T11:49:26;98685.75;;;15.88;15.22
63321;BME280;49449;48.800;9.534;2023-04-06T11:51:55;98674.06;;;15.95;15.28
63321;BME280;49449;48.800;9.534;2023-04-06T11:54:30;98670.88;;;15.93;17.76
63321;BME280;49449;48.800;9.534;2023-04-06T11:56:58;98666.56;;;15.86;14.91
63321;BME280;49449;48.800;9.534;2023-04-06T11:59:27;98654.28;;;15.75;12.70
63321;BME280;49449;48.800;9.534;2023-04-06T12:01:57;98659.59;;;15.75;17.38
63321;BME280;49449;48.800;9.534;2023-04-06T12:04:25;98658.22;;;15.72;16.61
63321;BME280;49449;48.800;9.534;2023-04-06T12:06:53;98655.38;;;15.84;15.41
63321;BME280;49449;48.800;9.534;2023-04-06T12:09:21;98654.31;;;15.85;14.18
63321;BME280;49449;48.800;9.534;2023-04-06T12:11:49;98641.91;;;15.59;14.40
63321;BME280;49449;48.800;9.534;2023-04-06T12:14:17;98647.66;;;15.40;17.16
63321;BME280;49449;48.800;9.534;2023-04-06T12:16:44;98642.56;;;15.33;16.30
63321;BME280;49449;48.800;9.534;2023-04-06T12:19:14;98641.03;;;15.43;16.11
63321;BME280;49449;48.800;9.534;2023-04-06T12:21:42;98647.16;;;15.43;16.67
63321;BME280;49449;48.800;9.534;2023-04-06T12:24:09;98648.22;;;15.42;15.70
63321;BME280;49449;48.800;9.534;2023-04-06T12:26:37;98645.13;;;15.23;15.44
63321;BME280;49449;48.800;9.534;2023-04-06T12:29:05;98638.44;;;15.15;13.74
63321;BME280;49449;48.800;9.534;2023-04-06T12:31:35;98641.75;;;14.95;16.31
63321;BME280;49449;48.800;9.534;2023-04-06T12:34:04;98633.44;;;14.87;14.19
63321;BME280;49449;48.800;9.534;2023-04-06T12:36:34;98634.41;;;14.81;13.86
63321;BME280;49449;48.800;9.534;2023-04-06T12:39:01;98632.56;;;14.81;15.59
63321;BME280;49449;48.800;9.534;2023-04-06T12:41:29;98628.56;;;14.78;14.85
63321;BME280;49449;48.800;9.534;2023-04-06T12:43:58;98631.97;;;14.74;18.66
63321;BME280;49449;48.800;9.534;2023-04-06T12:46:26;98633.91;;;14.51;15.15
63321;BME280;49449;48.800;9.534;2023-04-06T12:48:56;98631.50;;;14.50;15.02
63321;BME280;49449;48.800;9.534;2023-04-06T12:51:27;98631.03;;;14.58;14.06
63321;BME280;49449;48.800;9.534;2023-04-06T12:53:57;98632.75;;;14.69;15.02
63321;BME280;49449;48.800;9.534;2023-04-06T12:56:25;98626.91;;;14.72;14.42
63321;BME280;49449;48.800;9.534;2023-04-06T12:58:53;98627.41;;;14.69;14.27
63321;BME280;49449;48.800;9.534;2023-04-06T13:01:21;98621.31;;;14.74;14.23
63321;BME280;49449;48.800;9.534;2023-04-06T13:03:49;98625.84;;;14.73;15.68
63321;BME280;49449;48.800;9.534;2023-04-06T13:06:17;98615.75;;;14.75;16.06
63321;BME280;49449;48.800;9.534;2023-04-06T13:08:45;98622.41;;;14.73;16.56
63321;BME280;49449;48.800;9.534;2023-04-06T13:11:17;98615.25;;;14.78;15.22
63321;BME280;49449;48.800;9.534;2023-04-06T13:13:47;98611.50;;;14.74;16.45
63321;BME280;49449;48.800;9.534;2023-04-06T13:16:14;98610.69;;;14.74;17.49